createdAt,value
2017-03-20T00:03:17.406Z,59.1
2017-03-20T00:08:18.567Z,58.8
2017-03-20T00:13:19.731Z,58.5
2017-03-20T00:18:20.829Z,58.4
2017-03-20T00:23:21.943Z,58.3
2017-03-20T00:28:23.058Z,57.9
2017-03-20T00:33:24.217Z,57.5
2017-03-20T00:38:25.278Z,57.8
2017-03-20T00:43:26.346Z,58.1
2017-03-20T00:48:27.493Z,57.8
2017-03-20T00:53:28.651Z,57.8
2017-03-20T00:58:29.800Z,57.7
2017-03-20T01:03:30.866Z,57.9
2017-03-20T01:08:31.990Z,58.2
2017-03-20T01:13:33.119Z,58.5
2017-03-20T01:18:34.160Z,58.8
2017-03-20T01:23:35.263Z,58.9
2017-03-20T01:28:36.371Z,59.1
2017-03-20T01:33:37.504Z,59.5
2017-03-20T01:38:38.484Z,59.9
2017-03-20T01:43:39.599Z,60.3
2017-03-20T01:48:40.766Z,60.5
2017-03-20T01:53:41.872Z,60.5
2017-03-20T01:58:42.977Z,60.5
2017-03-20T02:03:44.125Z,60.9
2017-03-20T02:13:46.421Z,61.1
2017-03-20T02:18:47.558Z,61.2
2017-03-20T02:23:48.692Z,61.3
2017-03-20T02:28:49.829Z,61.5
2017-03-20T02:33:50.938Z,61.7
2017-03-20T02:38:52.070Z,61.6
2017-03-20T02:43:53.197Z,61.5
2017-03-20T02:48:54.359Z,61.3
2017-03-20T02:53:55.509Z,61.4
2017-03-20T02:58:56.659Z,61.3
2017-03-20T03:03:57.735Z,61.6
2017-03-20T03:08:58.852Z,61.9
2017-03-20T03:14:00.027Z,62.2
2017-03-20T03:19:01.135Z,62.5
2017-03-20T03:24:02.270Z,62.7
2017-03-20T03:29:03.434Z,62.6
2017-03-20T03:34:04.525Z,62.5
2017-03-20T03:39:05.624Z,62.4
2017-03-20T03:44:06.738Z,62.1
2017-03-20T03:49:07.845Z,62.1
2017-03-20T03:54:08.970Z,62
2017-03-20T03:59:10.105Z,61.7
2017-03-20T04:04:11.250Z,61.2
2017-03-20T04:09:12.342Z,61
2017-03-20T04:14:13.534Z,60.8
2017-03-20T04:19:14.701Z,60.7
2017-03-20T04:24:15.813Z,60.8
2017-03-20T04:29:17.002Z,60.6
2017-03-20T04:34:18.145Z,60.2
2017-03-20T04:39:19.212Z,59.8
2017-03-20T04:44:20.325Z,59.6
2017-03-20T04:49:21.433Z,59.3
2017-03-20T04:54:22.556Z,59.1
2017-03-20T04:59:23.615Z,58.9
2017-03-20T05:04:24.762Z,58.6
2017-03-20T05:09:25.825Z,58.8
2017-03-20T05:14:26.902Z,58.7
2017-03-20T05:19:28.063Z,58.5
2017-03-20T05:24:29.146Z,58.5
2017-03-20T05:29:30.279Z,58.8
2017-03-20T05:34:31.341Z,59
2017-03-20T05:39:32.457Z,59.2
2017-03-20T05:44:33.560Z,59.3
2017-03-20T05:49:34.736Z,59.4
2017-03-20T05:54:35.818Z,59.6
2017-03-20T05:59:36.900Z,59.8
2017-03-20T06:04:38.026Z,60.1
2017-03-20T06:09:39.139Z,60.4
2017-03-20T06:14:40.249Z,60.8
2017-03-20T06:19:41.401Z,61
2017-03-20T06:24:42.478Z,61.3
2017-03-20T06:29:43.625Z,61.4
2017-03-20T06:34:44.760Z,61.5
2017-03-20T06:39:45.911Z,61.5
2017-03-20T06:44:47.045Z,61.5
2017-03-20T06:49:48.194Z,61.6
2017-03-20T06:54:49.332Z,61.6
2017-03-20T06:59:50.514Z,61.1
2017-03-20T07:04:51.701Z,61
2017-03-20T07:09:52.841Z,60.8
2017-03-20T07:14:53.930Z,60.5
2017-03-20T07:19:55.021Z,60.4
2017-03-20T07:24:56.128Z,60.6
2017-03-20T07:29:57.255Z,60.6
2017-03-20T07:34:58.412Z,60.5
2017-03-20T07:39:59.571Z,60.4
2017-03-20T07:45:00.689Z,60.2
2017-03-20T07:50:01.820Z,60.2
2017-03-20T07:55:02.885Z,60.1
2017-03-20T08:00:03.968Z,59.8
2017-03-20T08:05:05.078Z,59.5
2017-03-20T08:10:06.193Z,59.2
2017-03-20T08:15:07.347Z,59.2
2017-03-20T08:20:08.506Z,58.6
2017-03-20T08:25:09.627Z,58.3
2017-03-20T08:30:10.677Z,57.9
2017-03-20T08:35:11.838Z,57.7
2017-03-20T08:40:12.932Z,57.6
2017-03-20T08:45:14.070Z,57.6
2017-03-20T08:50:15.226Z,57.2
2017-03-20T08:55:16.328Z,57.3
2017-03-20T09:00:17.436Z,57.1
2017-03-20T09:05:18.564Z,56.3
2017-03-20T09:10:19.633Z,56.2
2017-03-20T09:15:20.773Z,56.3
2017-03-20T09:20:21.853Z,56
2017-03-20T09:25:23.009Z,55.9
2017-03-20T09:30:24.099Z,56.1
2017-03-20T09:35:25.262Z,56
2017-03-20T09:40:26.327Z,56
2017-03-20T09:45:27.414Z,56.3
2017-03-20T09:50:28.502Z,56.5
2017-03-20T09:55:29.636Z,56.5
2017-03-20T10:00:30.747Z,56.2
2017-03-20T10:05:31.876Z,56.3
2017-03-20T10:10:33.096Z,56.4
2017-03-20T10:15:34.091Z,56.7
2017-03-20T10:20:35.260Z,57
2017-03-20T10:25:36.344Z,57
2017-03-20T10:30:37.499Z,57
2017-03-20T10:35:38.661Z,57
2017-03-20T10:40:39.794Z,57
2017-03-20T10:45:40.881Z,57.3
2017-03-20T10:50:42.048Z,57.3
2017-03-20T10:55:43.206Z,57.3
2017-03-20T11:00:44.306Z,57.2
2017-03-20T11:05:45.402Z,57.1
2017-03-20T11:10:46.513Z,57.1
2017-03-20T11:15:47.617Z,57.5
2017-03-20T11:20:48.777Z,57.6
2017-03-20T11:25:49.874Z,57.9
2017-03-20T11:30:50.995Z,57.6
2017-03-20T11:35:52.145Z,57.6
2017-03-20T11:40:53.244Z,57.3
2017-03-20T11:45:54.319Z,57.1
2017-03-20T11:50:55.409Z,58
2017-03-20T11:55:56.492Z,58
2017-03-20T12:00:57.586Z,58.1
2017-03-20T12:05:58.733Z,58.1
2017-03-20T12:10:59.878Z,58.2
2017-03-20T12:16:00.944Z,58.8
2017-03-20T12:21:02.079Z,58.5
2017-03-20T12:26:03.203Z,58.4
2017-03-20T12:31:04.357Z,58.3
2017-03-20T12:36:05.512Z,59
2017-03-20T12:41:06.618Z,58.6
2017-03-20T12:46:07.713Z,58.6
2017-03-20T12:51:08.800Z,58.6
2017-03-20T12:56:09.915Z,58.6
2017-03-20T13:01:11.018Z,58.8
2017-03-20T13:06:12.137Z,58.6
2017-03-20T13:11:13.267Z,58.6
2017-03-20T13:16:14.375Z,58.6
2017-03-20T13:21:15.494Z,58.9
2017-03-20T13:26:16.618Z,58.9
2017-03-20T13:31:17.736Z,58.9
2017-03-20T13:36:18.863Z,58.8
2017-03-20T13:41:19.911Z,58.8
2017-03-20T13:46:20.963Z,58.6
2017-03-20T13:51:22.008Z,58.5
2017-03-20T13:56:23.130Z,58.8
2017-03-20T14:01:24.162Z,59.1
2017-03-20T14:06:25.261Z,59.2
2017-03-20T14:11:26.343Z,59.3
2017-03-20T14:16:27.442Z,59.2
2017-03-20T14:21:28.541Z,59.4
2017-03-20T14:26:29.635Z,59.2
2017-03-20T14:31:30.738Z,59.2
2017-03-20T14:36:31.832Z,59.1
2017-03-20T14:41:33.016Z,58.9
2017-03-20T14:46:34.117Z,58.9
2017-03-20T14:51:35.282Z,58.8
2017-03-20T14:56:36.367Z,58.8
2017-03-20T15:01:37.456Z,58.5
2017-03-20T15:06:38.550Z,58.3
2017-03-20T15:11:39.659Z,58.2
2017-03-20T15:16:40.825Z,58.1
2017-03-20T15:21:41.987Z,58
2017-03-20T15:26:43.253Z,58
2017-03-20T15:31:44.277Z,57.9
2017-03-20T15:36:45.361Z,57.8
2017-03-20T15:41:46.453Z,57.6
2017-03-20T15:46:47.571Z,57.5
2017-03-20T15:51:48.636Z,57.1
2017-03-20T15:56:49.787Z,57.4
2017-03-20T16:01:50.954Z,57
2017-03-20T16:06:52.023Z,56.8
2017-03-20T16:11:53.154Z,56.9
2017-03-20T16:16:54.284Z,56.4
2017-03-20T16:21:55.335Z,56.5
2017-03-20T16:26:56.455Z,56.2
2017-03-20T16:31:57.591Z,56.1
2017-03-20T16:36:58.647Z,55.8
2017-03-20T16:41:59.767Z,55.6
2017-03-20T16:47:00.894Z,55.4
2017-03-20T16:52:02.003Z,55.4
2017-03-20T16:57:03.109Z,55.3
2017-03-20T17:02:04.218Z,55.1
2017-03-20T17:07:05.380Z,55
2017-03-20T17:12:06.449Z,55
2017-03-20T17:17:07.618Z,55.2
2017-03-20T17:22:08.764Z,55
2017-03-20T17:27:09.910Z,55.2
2017-03-20T17:32:11.035Z,55.4
2017-03-20T17:37:12.162Z,55.4
2017-03-20T17:42:13.268Z,55.2
2017-03-20T17:47:14.300Z,55.5
2017-03-20T17:52:15.399Z,55.1
2017-03-20T17:57:16.499Z,55.6
2017-03-20T18:02:17.681Z,55.3
2017-03-20T18:07:18.769Z,54.8
2017-03-20T18:12:19.870Z,54.7
2017-03-20T18:17:20.944Z,54.8
2017-03-20T18:22:22.016Z,54.7
2017-03-20T18:27:23.141Z,54.6
2017-03-20T18:32:24.197Z,54.5
2017-03-20T18:37:25.347Z,54.4
2017-03-20T18:42:26.397Z,54.4
2017-03-20T18:47:27.528Z,54.2
2017-03-20T18:52:28.652Z,54.1
2017-03-20T18:57:29.777Z,54.1
2017-03-20T19:02:30.893Z,54
2017-03-20T19:07:31.922Z,53.8
2017-03-20T19:12:33.032Z,53.7
2017-03-20T19:17:34.128Z,53.6
2017-03-20T19:22:35.289Z,53.8
2017-03-20T19:27:36.445Z,53.5
2017-03-20T19:32:37.522Z,53.6
2017-03-20T19:37:38.655Z,53.8
2017-03-20T19:42:39.797Z,53.8
2017-03-20T19:47:40.767Z,53.7
2017-03-20T19:52:41.911Z,53.6
2017-03-20T19:57:43.021Z,53.6
2017-03-20T20:02:44.117Z,53.8
2017-03-20T20:07:45.309Z,53.9
2017-03-20T20:12:46.311Z,54
2017-03-20T20:17:47.456Z,54.1
2017-03-20T20:22:48.623Z,54.1
2017-03-20T20:27:49.708Z,54.2
2017-03-20T20:32:50.875Z,54.3
2017-03-20T20:37:51.972Z,54.2
2017-03-20T20:42:53.091Z,54.1
2017-03-20T20:47:54.212Z,54.1
2017-03-20T20:52:55.360Z,53.9
2017-03-20T20:57:56.454Z,53.7
2017-03-20T21:02:57.658Z,53.6
2017-03-20T21:07:58.779Z,53.2
2017-03-20T21:12:59.925Z,53.2
2017-03-20T21:18:01.071Z,53.1
2017-03-20T21:23:02.149Z,53
2017-03-20T21:28:03.236Z,53.1
2017-03-20T21:33:04.321Z,53.2
2017-03-20T21:38:05.478Z,53.2
2017-03-20T21:48:07.705Z,53.1
2017-03-20T21:53:08.786Z,53.2
2017-03-20T21:58:09.854Z,53.2
2017-03-20T22:03:10.909Z,53.2
2017-03-20T22:08:11.952Z,53.3
2017-03-20T22:13:13.073Z,53.3
2017-03-20T22:18:14.206Z,53.1
2017-03-20T22:23:15.314Z,53.1
2017-03-20T22:28:16.421Z,53.1
2017-03-20T22:33:17.527Z,53.1
2017-03-20T22:38:18.699Z,53.1
2017-03-20T22:43:19.859Z,53.2
2017-03-20T22:48:20.936Z,53.2
2017-03-20T22:53:21.999Z,53.1
2017-03-20T22:58:23.151Z,53.2
2017-03-20T23:03:24.282Z,53.3
2017-03-20T23:08:25.403Z,53.3
2017-03-20T23:13:26.524Z,53.1
2017-03-20T23:18:27.649Z,53.2
2017-03-20T23:23:28.731Z,53.2
2017-03-20T23:28:29.794Z,53.3
2017-03-20T23:33:30.940Z,53.3
2017-03-20T23:38:32.086Z,53.2
2017-03-20T23:43:33.160Z,53.2
2017-03-20T23:48:34.299Z,53.3
2017-03-20T23:53:35.437Z,53.2
2017-03-20T23:58:36.572Z,53.2
